Time;durP1;ratioP1;P1;durP2;ratioP2;P2;SDS_P1;SDS_P2;PMS_P1;PMS_P2;Temp;Humidity;BMP_temperature;BMP_pressure;BME280_temperature;BME280_humidity;BME280_pressure;Samples;Min_cycle;Max_cycle;Signal;HPM_P1;HPM_P2
2021/08/17 00:02:25;;;;;;;;;;;13.90;80.40;;;;;;4976625;28;19905;-75
2021/08/17 00:04:50;;;;;;;;;;;13.90;80.50;;;;;;4976646;28;19929;-76
2021/08/17 00:07:17;;;;;;;;;;;13.80;80.60;;;;;;4993764;28;19925;-76
2021/08/17 00:09:43;;;;;;;;;;;13.80;80.80;;;;;;4994282;28;19957;-75
2021/08/17 00:12:08;;;;;;;;;;;13.70;80.80;;;;;;4976650;28;20350;-76
2021/08/17 00:14:33;;;;;;;;;;;13.70;80.80;;;;;;4976613;28;19913;-76
2021/08/17 00:16:59;;;;;;;;;;;13.70;81.10;;;;;;4976799;28;20177;-76
2021/08/17 00:19:24;;;;;;;;;;;13.60;81.10;;;;;;4994315;28;20337;-75
2021/08/17 00:21:50;;;;;;;;;;;13.60;81.10;;;;;;4977285;28;19906;-76
2021/08/17 00:24:15;;;;;;;;;;;13.60;81.40;;;;;;4997651;28;19906;-76
2021/08/17 00:26:41;;;;;;;;;;;13.60;81.20;;;;;;4987596;28;19905;-73
2021/08/17 00:29:06;;;;;;;;;;;13.60;81.40;;;;;;5003982;28;19913;-75
2021/08/17 00:31:32;;;;;;;;;;;13.50;81.40;;;;;;4977218;28;19941;-75
2021/08/17 00:33:57;;;;;;;;;;;13.60;81.70;;;;;;4976431;28;19910;-76
2021/08/17 00:36:23;;;;;;;;;;;13.50;81.40;;;;;;4993318;28;19912;-76
2021/08/17 00:38:49;;;;;;;;;;;13.50;81.30;;;;;;4976316;28;20049;-76
2021/08/17 00:41:14;;;;;;;;;;;13.50;81.30;;;;;;4976242;28;19910;-77
2021/08/17 00:43:40;;;;;;;;;;;13.50;81.30;;;;;;4993819;28;19996;-76
2021/08/17 00:46:09;;;;;;;;;;;13.50;81.90;;;;;;4977843;28;20291;-76
2021/08/17 00:48:36;;;;;;;;;;;13.50;81.30;;;;;;4997142;28;19909;-75
2021/08/17 00:51:01;;;;;;;;;;;13.50;81.30;;;;;;4999385;28;19906;-74
2021/08/17 00:53:27;;;;;;;;;;;13.40;81.30;;;;;;4994868;28;19906;-76
2021/08/17 00:55:53;;;;;;;;;;;13.40;81.30;;;;;;4980923;28;19906;-77
2021/08/17 00:58:19;;;;;;;;;;;13.40;81.30;;;;;;4982221;28;19906;-75
2021/08/17 01:00:46;;;;;;;;;;;13.40;81.40;;;;;;4983643;28;19912;-76
2021/08/17 01:03:11;;;;;;;;;;;13.40;81.40;;;;;;4995731;28;20016;-77
2021/08/17 01:05:37;;;;;;;;;;;13.40;81.30;;;;;;4980271;28;20383;-77
2021/08/17 01:08:06;;;;;;;;;;;13.50;81.30;;;;;;4979586;28;19917;-75
2021/08/17 01:10:31;;;;;;;;;;;13.40;81.40;;;;;;4997122;28;19913;-75
2021/08/17 01:12:57;;;;;;;;;;;13.40;81.30;;;;;;4979866;28;19906;-77
2021/08/17 01:15:23;;;;;;;;;;;13.40;81.30;;;;;;4979715;28;19917;-76
2021/08/17 01:17:48;;;;;;;;;;;13.40;81.10;;;;;;4979687;28;19906;-76
2021/08/17 01:20:15;;;;;;;;;;;13.40;81.10;;;;;;4996488;28;19937;-76
2021/08/17 01:22:41;;;;;;;;;;;13.40;81.10;;;;;;4979471;28;20373;-75
2021/08/17 01:25:07;;;;;;;;;;;13.40;81.20;;;;;;4996925;28;19909;-76
2021/08/17 01:27:33;;;;;;;;;;;13.40;81.20;;;;;;4996926;28;19932;-77
2021/08/17 01:29:58;;;;;;;;;;;13.30;81.10;;;;;;4979036;28;19957;-74
2021/08/17 01:32:24;;;;;;;;;;;13.40;81.30;;;;;;4978754;28;20446;-76
2021/08/17 01:34:49;;;;;;;;;;;13.30;81.20;;;;;;4979135;28;19959;-76
2021/08/17 01:37:15;;;;;;;;;;;13.30;81.40;;;;;;4996349;28;19912;-77
2021/08/17 01:39:40;;;;;;;;;;;13.30;81.50;;;;;;4996639;28;20363;-75
2021/08/17 01:42:06;;;;;;;;;;;13.30;81.40;;;;;;4996369;28;19906;-75
2021/08/17 01:44:31;;;;;;;;;;;13.20;81.40;;;;;;4996880;28;20001;-77
2021/08/17 01:46:56;;;;;;;;;;;13.20;81.60;;;;;;4983906;28;19909;-76
2021/08/17 01:49:22;;;;;;;;;;;13.20;81.70;;;;;;5005924;28;19917;-75
2021/08/17 01:51:48;;;;;;;;;;;13.20;81.70;;;;;;4985906;28;19916;-76
2021/08/17 01:54:17;;;;;;;;;;;13.20;81.80;;;;;;4979415;28;19973;-76
2021/08/17 01:56:43;;;;;;;;;;;13.20;81.70;;;;;;4978671;28;19929;-76
2021/08/17 01:59:12;;;;;;;;;;;13.20;81.90;;;;;;4995882;28;19905;-75
2021/08/17 02:01:38;;;;;;;;;;;13.20;82.10;;;;;;4996818;28;19910;-76
2021/08/17 02:04:03;;;;;;;;;;;13.10;82.10;;;;;;4978876;28;20273;-76
2021/08/17 02:06:29;;;;;;;;;;;13.10;82.20;;;;;;4995803;28;19917;-76
2021/08/17 02:08:55;;;;;;;;;;;13.10;82.30;;;;;;4996014;28;19997;-77
2021/08/17 02:11:21;;;;;;;;;;;13.00;82.40;;;;;;4995883;28;20362;-76
2021/08/17 02:13:47;;;;;;;;;;;13.00;82.50;;;;;;4995297;28;20293;-76
2021/08/17 02:16:12;;;;;;;;;;;13.00;82.70;;;;;;4978320;28;19936;-76
2021/08/17 02:18:38;;;;;;;;;;;13.00;82.80;;;;;;4995794;28;20354;-76
2021/08/17 02:21:04;;;;;;;;;;;13.00;83.00;;;;;;4996178;28;19999;-76
2021/08/17 02:23:30;;;;;;;;;;;13.00;83.00;;;;;;4995808;28;19949;-76
2021/08/17 02:25:56;;;;;;;;;;;13.00;83.10;;;;;;4978779;28;19905;-77
2021/08/17 02:28:21;;;;;;;;;;;13.00;83.30;;;;;;4978582;28;19964;-75
2021/08/17 02:30:47;;;;;;;;;;;13.00;83.40;;;;;;4978844;28;20433;-76
2021/08/17 02:33:13;;;;;;;;;;;13.00;83.40;;;;;;4978672;28;20240;-76
2021/08/17 02:35:39;;;;;;;;;;;13.00;83.60;;;;;;4978597;28;20392;-76
2021/08/17 02:38:05;;;;;;;;;;;12.90;83.60;;;;;;4978775;28;20239;-77
2021/08/17 02:40:31;;;;;;;;;;;13.00;83.90;;;;;;4978092;28;20449;-76
2021/08/17 02:42:57;;;;;;;;;;;12.90;83.80;;;;;;4996244;28;19913;-77
2021/08/17 02:45:22;;;;;;;;;;;12.90;84.00;;;;;;4978555;28;19905;-76
2021/08/17 02:47:48;;;;;;;;;;;12.90;84.10;;;;;;4978498;28;19968;-77
2021/08/17 02:50:13;;;;;;;;;;;12.90;84.10;;;;;;4978205;28;19948;-77
2021/08/17 02:52:39;;;;;;;;;;;12.90;84.10;;;;;;4995703;28;19906;-77
2021/08/17 02:55:06;;;;;;;;;;;12.90;84.10;;;;;;4978718;28;20366;-77
2021/08/17 02:57:31;;;;;;;;;;;12.90;84.20;;;;;;4997935;28;20374;-77
2021/08/17 02:59:57;;;;;;;;;;;12.90;84.40;;;;;;4981521;28;19906;-77
2021/08/17 03:02:22;;;;;;;;;;;12.90;84.50;;;;;;4986610;28;19929;-76
2021/08/17 03:04:48;;;;;;;;;;;12.90;84.60;;;;;;4992754;28;20004;-76
2021/08/17 03:07:13;;;;;;;;;;;12.90;84.80;;;;;;4994841;28;20026;-77
2021/08/17 03:09:39;;;;;;;;;;;12.90;84.90;;;;;;4977757;28;19996;-76
2021/08/17 03:12:04;;;;;;;;;;;12.90;84.90;;;;;;4977858;28;19906;-77
2021/08/17 03:14:30;;;;;;;;;;;12.90;85.10;;;;;;4977412;28;20449;-77
2021/08/17 03:16:55;;;;;;;;;;;12.90;85.30;;;;;;4977671;28;19905;-77
2021/08/17 03:19:21;;;;;;;;;;;12.90;85.30;;;;;;4994866;28;19912;-76
2021/08/17 03:21:46;;;;;;;;;;;12.80;85.40;;;;;;4995105;28;19905;-78
2021/08/17 03:24:12;;;;;;;;;;;12.90;85.50;;;;;;4977694;28;19912;-77
2021/08/17 03:26:37;;;;;;;;;;;12.90;85.50;;;;;;4980018;28;19909;-75
2021/08/17 03:29:03;;;;;;;;;;;12.90;85.60;;;;;;4980483;28;19964;-77
2021/08/17 03:31:29;;;;;;;;;;;12.90;85.60;;;;;;4977854;28;19916;-76
2021/08/17 03:33:54;;;;;;;;;;;12.90;85.60;;;;;;4978459;28;19913;-77
2021/08/17 03:36:20;;;;;;;;;;;12.90;85.80;;;;;;4986928;28;19913;-75
2021/08/17 03:38:45;;;;;;;;;;;12.90;86.50;;;;;;4985689;28;19945;-75
2021/08/17 03:41:11;;;;;;;;;;;12.90;86.00;;;;;;4996586;28;20362;-77
2021/08/17 03:43:37;;;;;;;;;;;12.90;86.10;;;;;;4994123;28;19906;-78
2021/08/17 03:46:05;;;;;;;;;;;12.90;86.20;;;;;;4976830;28;20347;-76
2021/08/17 03:48:30;;;;;;;;;;;13.00;86.30;;;;;;4976348;28;20366;-79
2021/08/17 03:50:56;;;;;;;;;;;12.90;86.40;;;;;;4993958;28;19905;-77
2021/08/17 03:53:21;;;;;;;;;;;12.90;86.50;;;;;;4994442;28;20270;-77
2021/08/17 03:55:47;;;;;;;;;;;13.00;86.50;;;;;;4994151;28;19951;-77
2021/08/17 03:58:13;;;;;;;;;;;13.00;86.60;;;;;;4976671;28;19906;-77
2021/08/17 04:00:38;;;;;;;;;;;13.00;86.60;;;;;;4976583;28;19917;-77
2021/08/17 04:03:04;;;;;;;;;;;13.10;86.70;;;;;;4993854;28;19905;-78
2021/08/17 04:05:29;;;;;;;;;;;13.10;86.70;;;;;;4993885;28;19964;-76
2021/08/17 04:07:55;;;;;;;;;;;13.10;86.90;;;;;;4976398;28;19962;-76
2021/08/17 04:10:21;;;;;;;;;;;13.20;86.90;;;;;;4993776;28;19912;-76
2021/08/17 04:12:47;;;;;;;;;;;13.20;87.10;;;;;;4976693;28;19912;-77
2021/08/17 04:15:12;;;;;;;;;;;13.20;87.30;;;;;;4976498;28;19906;-77
2021/08/17 04:17:39;;;;;;;;;;;13.20;87.40;;;;;;4993904;28;19913;-77
2021/08/17 04:20:05;;;;;;;;;;;13.20;87.50;;;;;;4976176;28;20000;-76
2021/08/17 04:22:30;;;;;;;;;;;13.20;87.80;;;;;;4976219;28;20358;-77
2021/08/17 04:24:56;;;;;;;;;;;13.20;88.00;;;;;;4976647;28;19937;-77
2021/08/17 04:27:21;;;;;;;;;;;13.30;88.20;;;;;;4976112;28;19916;-78
2021/08/17 04:29:47;;;;;;;;;;;13.30;88.30;;;;;;4976285;28;20408;-78
2021/08/17 04:32:12;;;;;;;;;;;13.30;88.60;;;;;;4976445;28;19906;-77
2021/08/17 04:34:38;;;;;;;;;;;13.30;88.70;;;;;;4976275;28;19910;-77
2021/08/17 04:37:04;;;;;;;;;;;13.40;88.90;;;;;;4993345;28;20001;-76
2021/08/17 04:39:29;;;;;;;;;;;13.40;89.10;;;;;;4975978;28;20382;-76
2021/08/17 04:41:55;;;;;;;;;;;13.40;89.10;;;;;;4976889;28;19955;-76
2021/08/17 04:44:20;;;;;;;;;;;13.40;89.40;;;;;;4993593;28;20376;-78
2021/08/17 04:46:46;;;;;;;;;;;13.50;89.40;;;;;;4993372;28;19917;-77
2021/08/17 04:49:11;;;;;;;;;;;13.50;89.50;;;;;;4993766;28;19910;-77
2021/08/17 04:51:37;;;;;;;;;;;13.50;89.80;;;;;;4976216;28;20374;-78
2021/08/17 04:54:02;;;;;;;;;;;13.60;89.80;;;;;;4994030;28;19906;-76
2021/08/17 04:56:28;;;;;;;;;;;13.60;89.70;;;;;;4981427;28;19910;-77
2021/08/17 04:58:54;;;;;;;;;;;13.60;89.70;;;;;;4978851;28;19906;-76
2021/08/17 05:01:20;;;;;;;;;;;13.70;89.60;;;;;;4979675;28;20438;-76
2021/08/17 05:03:45;;;;;;;;;;;13.70;89.80;;;;;;4981734;28;19941;-76
2021/08/17 05:06:11;;;;;;;;;;;13.80;89.60;;;;;;5001758;28;19912;-77
2021/08/17 05:08:37;;;;;;;;;;;13.80;89.40;;;;;;4975827;28;19948;-77
2021/08/17 05:11:03;;;;;;;;;;;13.80;89.30;;;;;;4993312;28;19911;-76
2021/08/17 05:13:28;;;;;;;;;;;13.90;89.30;;;;;;4975631;28;19981;-77
2021/08/17 05:15:54;;;;;;;;;;;14.00;89.10;;;;;;4975986;28;19976;-77
2021/08/17 05:18:19;;;;;;;;;;;13.90;89.20;;;;;;4993500;28;19910;-76
2021/08/17 05:20:45;;;;;;;;;;;13.90;88.90;;;;;;4993169;28;19929;-77
2021/08/17 05:23:10;;;;;;;;;;;14.00;89.10;;;;;;4997922;28;19937;-77
2021/08/17 05:25:36;;;;;;;;;;;14.00;89.30;;;;;;5001848;28;19912;-75
2021/08/17 05:28:01;;;;;;;;;;;14.00;89.50;;;;;;4999028;28;19932;-77
2021/08/17 05:30:27;;;;;;;;;;;14.00;89.60;;;;;;4975868;28;19910;-77
2021/08/17 05:32:52;;;;;;;;;;;14.00;89.70;;;;;;4992826;28;19905;-76
2021/08/17 05:35:18;;;;;;;;;;;14.00;90.10;;;;;;4975744;28;19910;-77
2021/08/17 05:37:44;;;;;;;;;;;14.10;89.80;;;;;;4975426;28;20020;-77
2021/08/17 05:40:10;;;;;;;;;;;14.10;90.00;;;;;;4975548;28;19929;-77
2021/08/17 05:42:35;;;;;;;;;;;14.20;90.00;;;;;;4992710;28;19957;-77
2021/08/17 05:45:01;;;;;;;;;;;14.20;90.10;;;;;;4992723;28;19905;-76
2021/08/17 05:47:27;;;;;;;;;;;14.30;90.20;;;;;;4992536;28;19909;-77
2021/08/17 05:49:52;;;;;;;;;;;14.30;90.10;;;;;;4977467;28;19916;-77
2021/08/17 05:52:18;;;;;;;;;;;14.40;90.20;;;;;;4996853;28;20421;-78
2021/08/17 05:54:44;;;;;;;;;;;14.40;90.10;;;;;;4996284;28;19917;-76
2021/08/17 05:57:09;;;;;;;;;;;14.50;90.30;;;;;;4997133;28;20346;-77
2021/08/17 05:59:35;;;;;;;;;;;14.50;90.30;;;;;;4980055;28;19984;-77
2021/08/17 06:02:02;;;;;;;;;;;14.60;90.50;;;;;;4980386;28;19905;-75
2021/08/17 06:04:31;;;;;;;;;;;14.60;90.40;;;;;;4982793;28;20199;-77
2021/08/17 06:07:00;;;;;;;;;;;14.60;90.50;;;;;;4981469;28;20333;-76
2021/08/17 06:09:25;;;;;;;;;;;14.60;90.70;;;;;;4997255;28;19961;-75
2021/08/17 06:11:57;;;;;;;;;;;14.70;90.80;;;;;;4996315;28;19909;-77
2021/08/17 06:14:22;;;;;;;;;;;14.70;90.80;;;;;;4978542;28;20338;-76
2021/08/17 06:16:48;;;;;;;;;;;14.80;90.90;;;;;;4996352;28;19916;-77
2021/08/17 06:19:13;;;;;;;;;;;14.80;90.90;;;;;;4978652;28;19906;-77
2021/08/17 06:21:39;;;;;;;;;;;14.90;90.30;;;;;;4996040;28;19912;-76
2021/08/17 06:24:05;;;;;;;;;;;15.00;90.50;;;;;;4978628;28;19972;-77
2021/08/17 06:26:31;;;;;;;;;;;15.10;90.80;;;;;;4978318;28;20317;-77
2021/08/17 06:28:57;;;;;;;;;;;15.20;90.70;;;;;;4996677;28;19948;-77
2021/08/17 06:31:23;;;;;;;;;;;15.30;90.90;;;;;;4978556;28;20335;-75
2021/08/17 06:33:49;;;;;;;;;;;15.40;90.40;;;;;;4978715;28;19960;-77
2021/08/17 06:36:14;;;;;;;;;;;15.40;90.60;;;;;;4978789;28;19906;-78
2021/08/17 06:38:40;;;;;;;;;;;15.50;90.60;;;;;;4978406;28;19913;-77
2021/08/17 06:41:05;;;;;;;;;;;15.60;90.40;;;;;;4978332;28;19912;-76
2021/08/17 06:43:31;;;;;;;;;;;15.60;90.40;;;;;;4978214;28;19912;-77
2021/08/17 06:45:57;;;;;;;;;;;15.70;90.40;;;;;;4996444;28;19906;-77
2021/08/17 06:48:22;;;;;;;;;;;15.70;90.10;;;;;;4978213;28;20409;-77
2021/08/17 06:50:48;;;;;;;;;;;15.70;90.00;;;;;;4977785;28;19975;-77
2021/08/17 06:53:13;;;;;;;;;;;15.80;90.00;;;;;;4978348;28;19905;-77
2021/08/17 06:55:39;;;;;;;;;;;15.80;90.20;;;;;;4998420;28;19952;-78
2021/08/17 06:58:07;;;;;;;;;;;15.80;90.20;;;;;;4979042;28;20343;-76
2021/08/17 07:00:33;;;;;;;;;;;15.80;90.10;;;;;;4997843;28;19905;-77
2021/08/17 07:02:58;;;;;;;;;;;15.80;90.20;;;;;;4978965;28;20293;-76
2021/08/17 07:05:24;;;;;;;;;;;15.90;90.20;;;;;;4980909;28;19928;-77
2021/08/17 07:07:49;;;;;;;;;;;15.90;90.20;;;;;;5008630;28;19917;-77
2021/08/17 07:10:15;;;;;;;;;;;16.00;90.10;;;;;;4979381;28;19906;-76
2021/08/17 07:12:40;;;;;;;;;;;16.00;90.10;;;;;;4981945;28;19906;-75
2021/08/17 07:15:06;;;;;;;;;;;15.90;90.10;;;;;;5001871;28;19968;-78
2021/08/17 07:17:32;;;;;;;;;;;15.90;90.10;;;;;;4980673;28;19907;-76
2021/08/17 07:19:57;;;;;;;;;;;15.90;88.70;;;;;;4995929;28;19941;-77
2021/08/17 07:22:23;;;;;;;;;;;16.00;86.70;;;;;;4977845;28;19933;-77
2021/08/17 07:24:48;;;;;;;;;;;16.00;86.00;;;;;;4994666;28;19917;-77
2021/08/17 07:27:13;;;;;;;;;;;16.00;86.80;;;;;;4994894;28;19909;-78
2021/08/17 07:29:39;;;;;;;;;;;16.10;89.80;;;;;;4976990;28;19917;-76
2021/08/17 07:32:05;;;;;;;;;;;16.10;90.00;;;;;;4977216;28;19906;-77
2021/08/17 07:34:30;;;;;;;;;;;16.10;90.30;;;;;;4976849;28;19906;-77
2021/08/17 07:36:56;;;;;;;;;;;16.20;90.30;;;;;;4994747;28;19906;-75
2021/08/17 07:39:21;;;;;;;;;;;16.30;90.30;;;;;;4977408;28;19906;-77
2021/08/17 07:41:47;;;;;;;;;;;16.30;90.20;;;;;;4976938;28;19906;-78
2021/08/17 07:44:12;;;;;;;;;;;16.30;90.00;;;;;;4976909;28;19913;-77
2021/08/17 07:46:38;;;;;;;;;;;16.40;90.00;;;;;;4994066;28;19960;-77
2021/08/17 07:49:03;;;;;;;;;;;16.40;89.90;;;;;;4976826;28;19905;-77
2021/08/17 07:51:29;;;;;;;;;;;16.50;89.80;;;;;;4976540;28;20394;-77
2021/08/17 07:53:55;;;;;;;;;;;16.50;90.00;;;;;;4976909;28;19917;-77
2021/08/17 07:56:20;;;;;;;;;;;16.70;88.20;;;;;;4976870;28;19905;-77
2021/08/17 07:58:46;;;;;;;;;;;16.70;89.30;;;;;;4976763;28;19989;-78
2021/08/17 08:01:13;;;;;;;;;;;16.80;89.00;;;;;;4976829;28;20362;-76
2021/08/17 08:03:40;;;;;;;;;;;16.90;89.10;;;;;;4976778;28;19940;-78
2021/08/17 08:06:06;;;;;;;;;;;17.00;88.70;;;;;;4976710;28;19941;-79
2021/08/17 08:08:31;;;;;;;;;;;17.00;88.40;;;;;;4993727;28;19972;-78
2021/08/17 08:10:58;;;;;;;;;;;17.00;87.30;;;;;;4993997;28;20240;-76
2021/08/17 08:13:24;;;;;;;;;;;17.00;87.80;;;;;;4976051;28;19912;-76
2021/08/17 08:15:49;;;;;;;;;;;16.90;87.90;;;;;;4976205;28;19908;-77
2021/08/17 08:18:15;;;;;;;;;;;16.90;88.30;;;;;;4994145;28;19913;-79
2021/08/17 08:20:40;;;;;;;;;;;16.80;88.80;;;;;;4976446;28;20358;-77
2021/08/17 08:23:06;;;;;;;;;;;16.90;89.00;;;;;;4976113;28;19906;-78
2021/08/17 08:25:32;;;;;;;;;;;16.90;88.60;;;;;;4976062;28;19906;-78
2021/08/17 08:27:57;;;;;;;;;;;16.80;88.70;;;;;;4976234;28;19910;-80
2021/08/17 08:30:23;;;;;;;;;;;16.80;88.30;;;;;;4976460;28;20000;-79
2021/08/17 08:32:49;;;;;;;;;;;16.90;88.80;;;;;;4976588;28;19957;-78
2021/08/17 08:35:14;;;;;;;;;;;16.90;89.10;;;;;;4976885;28;20000;-78
2021/08/17 08:37:40;;;;;;;;;;;16.80;88.70;;;;;;4977035;28;20327;-77
2021/08/17 08:40:07;;;;;;;;;;;16.90;87.60;;;;;;4978428;28;19999;-79
2021/08/17 08:42:32;;;;;;;;;;;16.90;88.70;;;;;;4997904;28;20351;-79
2021/08/17 08:44:58;;;;;;;;;;;16.90;88.80;;;;;;4979093;28;20218;-77
2021/08/17 08:47:23;;;;;;;;;;;16.90;87.70;;;;;;4977585;28;19925;-78
2021/08/17 08:49:50;;;;;;;;;;;16.90;88.10;;;;;;4977118;28;19910;-76
2021/08/17 08:52:16;;;;;;;;;;;16.90;87.50;;;;;;4997268;28;19913;-79
2021/08/17 08:54:41;;;;;;;;;;;16.90;87.60;;;;;;4985866;28;19906;-78
2021/08/17 08:57:07;;;;;;;;;;;16.90;86.90;;;;;;4987043;28;20438;-77
2021/08/17 08:59:33;;;;;;;;;;;16.80;87.10;;;;;;4986379;28;19906;-77
2021/08/17 09:02:09;;;;;;;;;;;16.80;86.70;;;;;;5008089;28;19909;-77
2021/08/17 09:04:34;;;;;;;;;;;16.80;87.40;;;;;;5009479;28;19945;-77
2021/08/17 09:07:00;;;;;;;;;;;16.80;87.20;;;;;;4992790;28;19914;-77
2021/08/17 09:09:26;;;;;;;;;;;16.70;87.10;;;;;;5001156;28;19908;-78
2021/08/17 09:11:53;;;;;;;;;;;16.70;87.40;;;;;;4976754;28;20001;-77
2021/08/17 09:14:30;;;;;;;;;;;16.60;87.20;;;;;;4993743;28;20008;-78
2021/08/17 09:16:59;;;;;;;;;;;16.60;83.90;;;;;;4993293;28;19940;-79
2021/08/17 09:19:44;;;;;;;;;;;16.70;85.70;;;;;;4975999;28;19957;-78
2021/08/17 09:22:20;;;;;;;;;;;16.70;86.00;;;;;;4991818;28;19962;-77
2021/08/17 09:24:53;;;;;;;;;;;16.70;86.50;;;;;;4996313;28;19941;-78
2021/08/17 09:27:20;;;;;;;;;;;16.80;86.50;;;;;;4997220;28;19913;-78
2021/08/17 09:29:46;;;;;;;;;;;16.80;86.60;;;;;;4997332;28;19910;-79
2021/08/17 09:32:14;;;;;;;;;;;16.90;86.40;;;;;;4997116;28;19906;-79
2021/08/17 09:34:40;;;;;;;;;;;17.00;86.20;;;;;;4979723;28;19945;-76
2021/08/17 09:37:11;;;;;;;;;;;17.10;84.90;;;;;;4997268;28;19909;-78
2021/08/17 09:39:41;;;;;;;;;;;17.10;84.80;;;;;;4979330;28;19905;-77
2021/08/17 09:42:12;;;;;;;;;;;17.10;83.60;;;;;;4996931;28;19906;-78
2021/08/17 09:44:38;;;;;;;;;;;17.20;83.90;;;;;;4979015;28;19905;-78
2021/08/17 09:47:04;;;;;;;;;;;17.30;84.00;;;;;;4979036;28;19909;-78
2021/08/17 09:49:30;;;;;;;;;;;17.30;83.20;;;;;;4978803;28;19937;-78
2021/08/17 09:51:57;;;;;;;;;;;17.40;82.90;;;;;;4979893;28;20329;-77
2021/08/17 09:54:24;;;;;;;;;;;17.50;83.20;;;;;;4979246;28;19906;-79
2021/08/17 09:57:00;;;;;;;;;;;17.50;82.60;;;;;;4979093;28;19906;-77
2021/08/17 09:59:26;;;;;;;;;;;17.60;82.10;;;;;;4996328;28;20306;-79
2021/08/17 10:01:52;;;;;;;;;;;17.60;81.40;;;;;;4978898;28;19912;-78
2021/08/17 10:04:18;;;;;;;;;;;17.60;79.70;;;;;;4996371;28;20274;-78
2021/08/17 10:06:44;;;;;;;;;;;17.60;80.40;;;;;;4978848;28;19964;-76
2021/08/17 10:09:11;;;;;;;;;;;17.60;80.20;;;;;;4979007;28;20263;-77
2021/08/17 10:11:37;;;;;;;;;;;17.60;80.20;;;;;;4978944;28;19949;-78
2021/08/17 10:14:03;;;;;;;;;;;17.60;80.00;;;;;;4978688;28;20381;-80
2021/08/17 10:16:28;;;;;;;;;;;17.60;80.60;;;;;;4996003;28;19968;-75
2021/08/17 10:18:55;;;;;;;;;;;17.60;80.10;;;;;;4978889;28;19968;-78
2021/08/17 10:21:21;;;;;;;;;;;17.60;79.10;;;;;;4979098;28;19953;-78
2021/08/17 10:23:46;;;;;;;;;;;17.60;80.10;;;;;;4995780;28;19960;-78
2021/08/17 10:26:26;;;;;;;;;;;17.60;80.20;;;;;;4978865;28;19914;-76
2021/08/17 10:28:51;;;;;;;;;;;17.60;80.50;;;;;;4978460;28;19914;-78
2021/08/17 10:31:18;;;;;;;;;;;17.70;79.80;;;;;;4978652;28;20317;-78
2021/08/17 10:33:49;;;;;;;;;;;17.70;78.80;;;;;;4995832;28;20446;-76
2021/08/17 10:36:27;;;;;;;;;;;17.70;79.20;;;;;;4978209;28;19992;-79
2021/08/17 10:38:53;;;;;;;;;;;17.80;79.20;;;;;;4995989;28;19952;-78
2021/08/17 10:41:23;;;;;;;;;;;17.70;79.40;;;;;;4978641;28;19909;-77
2021/08/17 10:43:49;;;;;;;;;;;17.60;79.80;;;;;;4978371;28;19909;-78
2021/08/17 10:46:16;;;;;;;;;;;17.60;80.20;;;;;;4997407;28;19928;-78
2021/08/17 10:48:51;;;;;;;;;;;17.60;80.20;;;;;;4987065;28;19916;-77
2021/08/17 10:51:20;;;;;;;;;;;17.60;79.10;;;;;;4993875;28;19945;-77
2021/08/17 10:53:49;;;;;;;;;;;17.70;78.00;;;;;;4988329;28;19906;-77
2021/08/17 10:56:16;;;;;;;;;;;17.70;78.00;;;;;;5002788;28;19906;-77
2021/08/17 10:58:42;;;;;;;;;;;17.70;77.80;;;;;;4982306;28;19928;-77
2021/08/17 11:01:08;;;;;;;;;;;17.70;78.00;;;;;;5001045;28;19933;-78
2021/08/17 11:03:39;;;;;;;;;;;17.70;78.30;;;;;;4981167;28;19906;-77
2021/08/17 11:06:05;;;;;;;;;;;17.60;77.70;;;;;;4996795;28;19941;-79
2021/08/17 11:08:30;;;;;;;;;;;17.70;77.20;;;;;;4988010;28;20046;-78
2021/08/17 11:10:56;;;;;;;;;;;17.70;76.60;;;;;;4987032;28;19952;-78
2021/08/17 11:13:25;;;;;;;;;;;17.70;76.50;;;;;;4978577;28;20354;-77
2021/08/17 11:16:06;;;;;;;;;;;17.70;76.70;;;;;;4979320;28;19939;-77
2021/08/17 11:18:48;;;;;;;;;;;17.70;77.40;;;;;;4995357;28;20433;-77
2021/08/17 11:21:27;;;;;;;;;;;17.60;77.70;;;;;;4981705;28;19917;-77
2021/08/17 11:24:12;;;;;;;;;;;17.60;77.90;;;;;;4999939;28;19906;-79
2021/08/17 11:26:38;;;;;;;;;;;17.50;78.30;;;;;;4995778;28;20012;-77
2021/08/17 11:29:03;;;;;;;;;;;17.40;79.00;;;;;;4994705;28;19905;-78
2021/08/17 11:31:29;;;;;;;;;;;17.30;78.50;;;;;;4994334;28;20420;-78
2021/08/17 11:34:11;;;;;;;;;;;17.20;79.60;;;;;;4994404;28;20397;-77
2021/08/17 11:36:36;;;;;;;;;;;17.10;79.90;;;;;;4994090;28;19913;-76
2021/08/17 11:39:18;;;;;;;;;;;17.10;80.90;;;;;;4977028;28;19910;-75
2021/08/17 11:41:44;;;;;;;;;;;17.00;81.20;;;;;;4976617;28;20354;-74
2021/08/17 11:44:10;;;;;;;;;;;16.90;81.90;;;;;;4994162;28;20007;-75
2021/08/17 11:46:36;;;;;;;;;;;16.90;82.20;;;;;;4975853;28;19917;-74
2021/08/17 11:49:20;;;;;;;;;;;16.80;82.20;;;;;;4994045;28;20361;-74
2021/08/17 11:51:45;;;;;;;;;;;16.70;81.50;;;;;;4976356;28;19906;-73
2021/08/17 11:54:14;;;;;;;;;;;16.60;82.10;;;;;;4994384;28;19996;-74
2021/08/17 11:56:40;;;;;;;;;;;16.50;82.60;;;;;;4993970;28;20005;-75
2021/08/17 11:59:06;;;;;;;;;;;16.40;83.00;;;;;;4976695;28;19945;-73
2021/08/17 12:01:31;;;;;;;;;;;16.40;84.20;;;;;;4976478;28;20243;-73
2021/08/17 12:04:06;;;;;;;;;;;16.30;84.80;;;;;;4994484;28;20000;-76
2021/08/17 12:06:32;;;;;;;;;;;16.20;84.90;;;;;;4993879;28;19905;-74
2021/08/17 12:09:17;;;;;;;;;;;16.20;85.90;;;;;;4976240;28;19924;-74
2021/08/17 12:12:09;;;;;;;;;;;16.20;86.00;;;;;;4993845;28;19906;-72
2021/08/17 12:14:35;;;;;;;;;;;16.20;86.10;;;;;;4990714;28;19905;-73
2021/08/17 12:17:01;;;;;;;;;;;16.10;86.90;;;;;;4994081;28;19984;-73
2021/08/17 12:19:26;;;;;;;;;;;16.10;88.10;;;;;;4976380;28;20409;-74
2021/08/17 12:21:52;;;;;;;;;;;16.00;88.40;;;;;;4994353;28;19906;-76
2021/08/17 12:24:26;;;;;;;;;;;16.00;89.10;;;;;;4993919;28;20404;-74
2021/08/17 12:26:55;;;;;;;;;;;15.90;89.50;;;;;;4976586;28;19948;-75
2021/08/17 12:29:24;;;;;;;;;;;15.80;90.10;;;;;;4976825;28;20012;-74
2021/08/17 12:31:51;;;;;;;;;;;15.80;90.50;;;;;;4993995;28;19936;-72
2021/08/17 12:34:16;;;;;;;;;;;15.80;90.40;;;;;;4995047;28;20414;-76
2021/08/17 12:36:45;;;;;;;;;;;15.80;90.70;;;;;;4982792;28;19941;-76
2021/08/17 12:39:12;;;;;;;;;;;15.70;90.50;;;;;;5000558;28;19906;-74
2021/08/17 12:41:38;;;;;;;;;;;15.70;91.00;;;;;;4995233;28;19910;-73
2021/08/17 12:44:16;;;;;;;;;;;15.70;91.30;;;;;;4993720;28;19906;-74
2021/08/17 12:46:56;;;;;;;;;;;15.70;91.30;;;;;;4993328;28;20248;-74
2021/08/17 12:49:22;;;;;;;;;;;15.70;91.30;;;;;;4976124;28;19913;-72
2021/08/17 12:51:47;;;;;;;;;;;15.60;91.50;;;;;;4993752;28;20033;-76
2021/08/17 12:54:13;;;;;;;;;;;15.70;91.60;;;;;;4976412;28;20044;-74
2021/08/17 12:56:38;;;;;;;;;;;15.60;91.70;;;;;;4981025;28;20002;-73
2021/08/17 12:59:04;;;;;;;;;;;15.60;91.70;;;;;;4986549;28;19909;-72
2021/08/17 13:01:30;;;;;;;;;;;15.60;91.40;;;;;;5000473;28;20406;-73
2021/08/17 13:03:56;;;;;;;;;;;15.60;91.60;;;;;;5004512;28;19905;-73
2021/08/17 13:06:22;;;;;;;;;;;15.60;91.80;;;;;;4998720;28;19960;-71
2021/08/17 13:08:47;;;;;;;;;;;15.70;92.00;;;;;;5000835;28;19921;-73
2021/08/17 13:11:12;;;;;;;;;;;15.70;91.90;;;;;;5010190;28;19913;-73
2021/08/17 13:13:38;;;;;;;;;;;15.80;91.80;;;;;;4996924;28;20053;-73
2021/08/17 13:16:04;;;;;;;;;;;15.80;91.80;;;;;;4997205;28;20385;-73
2021/08/17 13:18:29;;;;;;;;;;;15.80;91.70;;;;;;4997128;28;19910;-74
2021/08/17 13:20:56;;;;;;;;;;;15.80;91.60;;;;;;4996666;28;20483;-72
2021/08/17 13:23:21;;;;;;;;;;;15.80;91.80;;;;;;4997053;28;19912;-74
2021/08/17 13:25:47;;;;;;;;;;;15.70;91.80;;;;;;4979293;28;19905;-73
2021/08/17 13:28:12;;;;;;;;;;;15.80;91.90;;;;;;4996815;28;19914;-73
2021/08/17 13:30:38;;;;;;;;;;;15.80;92.10;;;;;;4996771;28;20318;-73
2021/08/17 13:33:04;;;;;;;;;;;15.80;92.00;;;;;;4979418;28;19906;-73
2021/08/17 13:35:34;;;;;;;;;;;15.80;92.10;;;;;;4979164;28;19910;-73
2021/08/17 13:38:00;;;;;;;;;;;15.80;92.20;;;;;;4979187;28;19909;-72
2021/08/17 13:40:25;;;;;;;;;;;15.80;92.10;;;;;;4997092;28;19928;-72
2021/08/17 13:42:51;;;;;;;;;;;15.80;92.10;;;;;;4996181;28;20372;-73
2021/08/17 13:45:16;;;;;;;;;;;15.80;92.20;;;;;;4996185;28;19960;-73
2021/08/17 13:47:42;;;;;;;;;;;15.80;92.20;;;;;;4996099;28;19909;-73
2021/08/17 13:50:08;;;;;;;;;;;15.80;92.30;;;;;;4996632;28;20243;-72
2021/08/17 13:52:33;;;;;;;;;;;15.80;92.40;;;;;;4996894;28;20054;-74
2021/08/17 13:54:58;;;;;;;;;;;15.80;92.40;;;;;;4978838;28;19909;-74
2021/08/17 13:57:24;;;;;;;;;;;15.80;92.50;;;;;;4978871;28;19924;-73
2021/08/17 13:59:49;;;;;;;;;;;15.80;92.30;;;;;;4997314;28;20338;-75
2021/08/17 14:02:15;;;;;;;;;;;15.80;92.00;;;;;;5001618;28;19913;-75
2021/08/17 14:04:41;;;;;;;;;;;15.70;92.10;;;;;;4999297;28;19912;-73
2021/08/17 14:07:07;;;;;;;;;;;15.70;92.30;;;;;;4978857;28;20004;-72
2021/08/17 14:09:33;;;;;;;;;;;15.60;92.40;;;;;;4995689;28;19901;-71
2021/08/17 14:11:59;;;;;;;;;;;15.60;92.50;;;;;;4978190;28;19921;-73
2021/08/17 14:14:25;;;;;;;;;;;15.70;92.80;;;;;;4978853;28;19948;-72